Webcam Richtung Westen

Webcam27

Webcam Richtung Norden

Webcam36

Webcam Richtung Osten

Webcam09

Wetter(Würzburg):
171630Z AUTO 31007G12KT 50KM OVC140 28/07 Q1014
		
Tue 17.07.2018, 16:30 UTC

Sichtweite bis zu 50 km
Wind aus 310° mit 07kt, in Böen bis zu 12kt
bedeckter Himmel (8 Achtel) bei 14000 Fuß
Temperatur: 28 °C
Taupunkt: 7 °C
QNH: 1014 hPa
                         Heute        Morgen
                         17.07        18.07
--------------------------------------------
Beginn der Dämmerung     02:49        02:50
Sonnenaufgang            03:31        03:32
Sonnenuntergang          19:22        19:21
Ende der Dämmerung       20:04        20:02

Alle Zeiten in UTC